Time;durP1;ratioP1;P1;durP2;ratioP2;P2;SDS_P1;SDS_P2;PMS_P1;PMS_P2;Temp;Humidity;BMP_temperature;BMP_pressure;BME280_temperature;BME280_humidity;BME280_pressure;Samples;Min_cycle;Max_cycle;Signal;HPM_P1;HPM_P2
2022/09/17 00:00:59;;;;;;;10.82;3.25;;;12.90;99.90;;;;;;5063682;28;20477;-68
2022/09/17 00:03:27;;;;;;;12.70;2.97;;;12.90;99.90;;;;;;5062261;28;20036;-68
2022/09/17 00:06:21;;;;;;;12.88;2.88;;;13.00;99.90;;;;;;5059461;28;20029;-69
2022/09/17 00:08:47;;;;;;;12.40;2.15;;;13.10;99.90;;;;;;5055572;28;20473;-69
2022/09/17 00:11:19;;;;;;;5.88;1.45;;;13.10;99.90;;;;;;5050765;28;20079;-68
2022/09/17 00:13:45;;;;;;;;;;;13.20;99.90;;;;;;5048593;28;20060;-69
2022/09/17 00:16:11;;;;;;;11.80;1.55;;;13.20;99.90;;;;;;5054015;28;19948;-69
2022/09/17 00:18:40;;;;;;;7.35;1.55;;;13.20;99.90;;;;;;5054208;28;20075;-69
2022/09/17 00:21:14;;;;;;;17.48;2.17;;;13.30;99.90;;;;;;5053535;28;20079;-69
2022/09/17 00:23:40;;;;;;;15.90;2.13;;;13.30;99.90;;;;;;5053860;28;20482;-68
2022/09/17 00:26:05;;;;;;;16.23;3.72;;;13.30;99.90;;;;;;5053970;28;20100;-69
2022/09/17 00:28:31;;;;;;;9.27;1.67;;;13.40;99.90;;;;;;5054150;28;20466;-68
2022/09/17 00:30:57;;;;;;;15.30;3.88;;;13.40;99.90;;;;;;5054038;28;20486;-69
2022/09/17 00:33:22;;;;;;;10.57;3.08;;;13.40;99.90;;;;;;5053607;28;20029;-68
2022/09/17 00:35:58;;;;;;;19.00;3.60;;;13.30;99.90;;;;;;5053868;28;20025;-69
2022/09/17 00:38:23;;;;;;;16.40;2.65;;;13.40;99.90;;;;;;5053786;28;20040;-69
2022/09/17 00:40:49;;;;;;;13.07;2.40;;;13.40;99.90;;;;;;5049468;28;20033;-69
2022/09/17 00:43:45;;;;;;;15.82;3.05;;;13.40;99.90;;;;;;5044096;28;20506;-68
2022/09/17 00:46:36;;;;;;;8.43;2.15;;;13.40;99.90;;;;;;5052791;28;20155;-68
2022/09/17 00:49:27;;;;;;;11.68;2.03;;;13.40;99.90;;;;;;5048142;28;20043;-68
2022/09/17 00:52:06;;;;;;;10.23;1.75;;;13.40;99.90;;;;;;5052719;28;20047;-68
2022/09/17 00:54:33;;;;;;;11.68;1.63;;;13.40;99.90;;;;;;5053521;28;20028;-68
2022/09/17 00:56:58;;;;;;;21.23;3.10;;;13.40;99.90;;;;;;5053331;28;20078;-68
2022/09/17 00:59:25;;;;;;;14.77;2.20;;;13.40;99.90;;;;;;5042567;28;20028;-68
2022/09/17 01:01:51;;;;;;;12.88;2.75;;;13.40;99.90;;;;;;5051643;28;20048;-68
2022/09/17 01:04:19;;;;;;;17.75;2.25;;;13.60;99.90;;;;;;5048515;28;20029;-68
2022/09/17 01:07:18;;;;;;;8.77;1.25;;;13.40;99.90;;;;;;5053255;28;20021;-68
2022/09/17 01:09:52;;;;;;;11.80;1.92;;;13.10;99.90;;;;;;5052855;28;20049;-68
2022/09/17 01:12:34;;;;;;;21.58;3.25;;;12.80;99.90;;;;;;5052975;28;20025;-68
2022/09/17 01:15:21;;;;;;;15.37;2.97;;;12.60;99.90;;;;;;5059823;28;20378;-68
2022/09/17 01:18:25;;;;;;;9.80;1.63;;;12.40;99.90;;;;;;5053294;28;20029;-70
2022/09/17 01:21:23;;;;;;;17.40;3.25;;;12.30;99.90;;;;;;5047455;28;20041;-68
2022/09/17 01:24:22;;;;;;;20.23;2.85;;;12.10;99.90;;;;;;5048955;28;20090;-68
2022/09/17 01:27:13;;;;;;;19.08;2.83;;;12.00;99.90;;;;;;5052637;28;20052;-68
2022/09/17 01:30:03;;;;;;;22.05;2.85;;;11.90;99.90;;;;;;5052840;28;20029;-71
2022/09/17 01:32:45;;;;;;;8.38;1.60;;;11.80;99.90;;;;;;5053026;28;20111;-69
2022/09/17 01:35:20;;;;;;;18.00;2.25;;;11.80;99.90;;;;;;5049112;28;20037;-70
2022/09/17 01:38:15;;;;;;;11.13;2.45;;;11.70;99.90;;;;;;5052506;28;20035;-70
2022/09/17 01:41:25;;;;;;;10.35;2.75;;;11.70;99.90;;;;;;5052464;28;20041;-68
2022/09/17 01:43:56;;;;;;;10.25;2.40;;;11.80;99.90;;;;;;5052372;28;20029;-68
2022/09/17 01:46:29;;;;;;;14.88;2.22;;;11.80;99.90;;;;;;5052538;28;20021;-68
2022/09/17 01:49:00;;;;;;;11.13;1.95;;;11.90;99.90;;;;;;5052350;28;20021;-68
2022/09/17 01:51:29;;;;;;;14.10;2.00;;;11.90;99.90;;;;;;5047050;28;20111;-68
2022/09/17 01:54:03;;;;;;;11.38;2.00;;;11.80;99.90;;;;;;5036075;28;20025;-69
2022/09/17 01:56:37;;;;;;;9.52;1.98;;;11.70;99.90;;;;;;5051849;28;20057;-69
2022/09/17 01:59:23;;;;;;;12.85;2.13;;;11.60;99.90;;;;;;5052434;28;20473;-69
2022/09/17 02:01:54;;;;;;;14.80;2.33;;;11.60;99.90;;;;;;5052535;28;20029;-70
2022/09/17 02:04:27;;;;;;;15.07;2.72;;;11.50;99.90;;;;;;5052079;28;20029;-70
2022/09/17 02:07:04;;;;;;;19.67;2.22;;;11.50;99.90;;;;;;5052137;28;20032;-69
2022/09/17 02:09:44;;;;;;;14.75;2.58;;;11.50;99.90;;;;;;5051717;28;20053;-69
2022/09/17 02:12:15;;;;;;;16.98;2.65;;;11.50;99.90;;;;;;5052010;28;20082;-72
2022/09/17 02:14:48;;;;;;;13.02;1.63;;;11.60;99.90;;;;;;5050875;28;20044;-68
2022/09/17 02:17:37;;;;;;;16.52;3.28;;;11.60;99.90;;;;;;5049635;28;20088;-68
2022/09/17 02:20:04;;;;;;;12.27;2.25;;;11.60;99.90;;;;;;5050795;28;20378;-68
2022/09/17 02:22:46;;;;;;;19.20;3.58;;;11.60;99.90;;;;;;5051890;28;20531;-69
2022/09/17 02:25:35;;;;;;;11.95;2.33;;;11.60;99.90;;;;;;5051987;28;20025;-71
2022/09/17 02:28:12;;;;;;;18.77;2.88;;;11.60;99.90;;;;;;5051981;28;20029;-69
2022/09/17 02:30:38;;;;;;;11.70;2.55;;;11.60;99.90;;;;;;5051801;28;20033;-69
2022/09/17 02:33:08;;;;;;;23.58;3.70;;;11.70;99.90;;;;;;5052006;28;20028;-68
2022/09/17 02:35:33;;;;;;;27.65;3.63;;;11.70;99.90;;;;;;5052308;28;20025;-68
2022/09/17 02:37:59;;;;;;;9.48;1.67;;;11.80;99.90;;;;;;5051503;28;20031;-68
2022/09/17 02:40:30;;;;;;;14.40;2.35;;;11.80;99.90;;;;;;5048732;28;20045;-68
2022/09/17 02:43:22;;;;;;;24.95;3.63;;;11.90;99.90;;;;;;5049316;28;20033;-68
2022/09/17 02:46:14;;;;;;;17.77;2.25;;;11.90;99.90;;;;;;5052066;28;20021;-69
2022/09/17 02:48:42;;;;;;;;;;;11.90;99.90;;;;;;5052505;28;20060;-68
2022/09/17 02:51:35;;;;;;;17.67;3.38;;;12.00;99.90;;;;;;5051914;28;19905;-69
2022/09/17 02:54:22;;;;;;;21.55;3.22;;;12.00;99.90;;;;;;5052140;28;20029;-69
2022/09/17 02:57:18;;;;;;;11.55;2.30;;;12.00;99.90;;;;;;5051840;28;20032;-68
2022/09/17 03:00:05;;;;;;;11.43;1.88;;;12.10;99.90;;;;;;5051460;28;20094;-68
2022/09/17 03:02:37;;;;;;;12.40;1.73;;;12.00;99.90;;;;;;5051635;28;20078;-69
2022/09/17 03:05:05;;;;;;;6.88;1.10;;;12.00;99.90;;;;;;5051363;28;20021;-68
2022/09/17 03:07:31;;;;;;;11.15;1.38;;;11.90;99.90;;;;;;5051816;28;20033;-68
2022/09/17 03:09:57;;;;;;;8.77;1.45;;;11.90;99.90;;;;;;5051618;28;20052;-69
2022/09/17 03:12:23;;;;;;;14.13;2.85;;;11.90;99.90;;;;;;5051874;28;20028;-68
2022/09/17 03:14:49;;;;;;;7.15;2.20;;;11.90;99.90;;;;;;5051840;28;20029;-69
2022/09/17 03:17:14;;;;;;;15.20;2.72;;;11.90;99.90;;;;;;5051881;28;20155;-69
2022/09/17 03:19:40;;;;;;;9.23;2.83;;;12.00;99.90;;;;;;5051310;28;20065;-69
2022/09/17 03:22:05;;;;;;;10.27;1.77;;;12.00;99.90;;;;;;5051921;28;20129;-69
2022/09/17 03:24:31;;;;;;;8.63;2.00;;;12.10;99.90;;;;;;5053716;28;20033;-68
2022/09/17 03:26:56;;;;;;;12.98;3.00;;;12.10;99.90;;;;;;5055136;28;20025;-68
2022/09/17 03:29:22;;;;;;;9.52;2.47;;;12.10;99.90;;;;;;5055230;28;20033;-68
2022/09/17 03:31:47;;;;;;;11.27;2.10;;;12.10;99.90;;;;;;5055348;28;20467;-68
2022/09/17 03:34:13;;;;;;;9.73;2.55;;;12.10;99.90;;;;;;5054697;28;20470;-68
2022/09/17 03:36:38;;;;;;;7.40;1.48;;;12.10;99.90;;;;;;5054907;28;20381;-68
2022/09/17 03:39:04;;;;;;;6.32;1.58;;;12.10;99.90;;;;;;5054536;28;20148;-68
2022/09/17 03:41:30;;;;;;;12.20;2.30;;;12.10;99.90;;;;;;5054867;28;20079;-68
2022/09/17 03:43:55;;;;;;;8.25;1.38;;;12.10;99.90;;;;;;5054861;28;20029;-68
2022/09/17 03:46:21;;;;;;;15.77;3.20;;;12.10;99.90;;;;;;5049560;28;20029;-68
2022/09/17 03:48:46;;;;;;;8.52;2.00;;;12.10;99.90;;;;;;5054581;28;20025;-68
2022/09/17 03:51:12;;;;;;;4.95;0.73;;;12.10;99.90;;;;;;5054207;28;20390;-68
2022/09/17 03:53:38;;;;;;;12.10;1.73;;;12.10;99.90;;;;;;5054605;28;20025;-68
2022/09/17 03:56:05;;;;;;;9.13;1.45;;;12.10;99.90;;;;;;5054815;28;20025;-68
2022/09/17 03:58:31;;;;;;;9.98;1.23;;;12.20;99.90;;;;;;5054225;28;20048;-68
2022/09/17 04:00:56;;;;;;;5.75;1.63;;;12.20;99.90;;;;;;5054348;28;20037;-68
2022/09/17 04:03:24;;;;;;;17.75;3.95;;;12.20;99.90;;;;;;5054530;28;20037;-68
2022/09/17 04:05:50;;;;;;;5.35;1.77;;;12.30;99.90;;;;;;5054366;28;20021;-68
2022/09/17 04:08:16;;;;;;;6.47;1.25;;;12.50;99.90;;;;;;5053884;28;20032;-68
2022/09/17 04:10:43;;;;;;;10.00;1.90;;;12.60;99.90;;;;;;5054275;28;20091;-68
2022/09/17 04:13:09;;;;;;;9.10;1.27;;;12.60;99.90;;;;;;5054333;28;20110;-68
2022/09/17 04:15:35;;;;;;;7.07;1.48;;;12.70;99.90;;;;;;5054100;28;20450;-68
2022/09/17 04:18:00;;;;;;;8.50;1.23;;;12.60;99.90;;;;;;5053932;28;20032;-70
2022/09/17 04:20:27;;;;;;;6.35;1.35;;;12.60;99.90;;;;;;5054112;28;20048;-69
2022/09/17 04:22:52;;;;;;;8.25;1.67;;;12.50;99.90;;;;;;5054124;28;20059;-68
2022/09/17 04:25:18;;;;;;;9.50;1.55;;;12.50;99.90;;;;;;5053976;28;20021;-70
2022/09/17 04:27:44;;;;;;;4.78;1.20;;;12.40;99.90;;;;;;5053970;28;20025;-69
2022/09/17 04:30:10;;;;;;;12.85;1.70;;;12.30;99.90;;;;;;5054284;28;20439;-70
2022/09/17 04:32:36;;;;;;;5.82;0.80;;;12.30;99.90;;;;;;5053656;28;20040;-70
2022/09/17 04:35:02;;;;;;;9.40;1.98;;;12.20;99.90;;;;;;5054130;28;20029;-70
2022/09/17 04:37:28;;;;;;;6.93;1.20;;;12.20;99.90;;;;;;5053948;28;20082;-69
2022/09/17 04:39:53;;;;;;;8.02;1.25;;;12.10;99.90;;;;;;5053841;28;20382;-70
2022/09/17 04:42:19;;;;;;;7.45;1.40;;;12.10;99.90;;;;;;5053689;28;20454;-69
2022/09/17 04:44:45;;;;;;;8.60;1.02;;;12.10;99.90;;;;;;5053514;28;20024;-70
2022/09/17 04:47:10;;;;;;;9.95;0.88;;;12.10;99.90;;;;;;5047556;28;20437;-70
2022/09/17 04:49:36;;;;;;;7.80;0.77;;;12.10;99.90;;;;;;5053372;28;20744;-70
2022/09/17 04:52:02;;;;;;;9.02;1.38;;;11.90;99.90;;;;;;5053700;28;20422;-69
2022/09/17 04:54:29;;;;;;;8.55;1.60;;;11.80;99.90;;;;;;5053865;28;20040;-69
2022/09/17 04:56:54;;;;;;;9.50;1.63;;;11.70;99.90;;;;;;5053469;28;20025;-70
2022/09/17 04:59:20;;;;;;;8.02;1.17;;;11.60;99.90;;;;;;5053404;28;20524;-67
2022/09/17 05:01:45;;;;;;;6.80;1.20;;;11.50;99.90;;;;;;5047979;28;20037;-68
2022/09/17 05:04:11;;;;;;;7.47;1.27;;;11.50;99.90;;;;;;5053268;28;20052;-69
2022/09/17 05:06:36;;;;;;;9.18;1.35;;;11.40;99.90;;;;;;5053243;28;20037;-68
2022/09/17 05:09:02;;;;;;;11.05;1.65;;;11.40;99.90;;;;;;5052841;28;20696;-69
2022/09/17 05:11:28;;;;;;;10.48;1.55;;;11.30;99.90;;;;;;5053018;28;20475;-69
2022/09/17 05:13:54;;;;;;;9.07;1.58;;;11.20;99.90;;;;;;5053453;28;20024;-67
2022/09/17 05:16:19;;;;;;;9.68;1.30;;;11.20;99.90;;;;;;5053220;28;20072;-68
2022/09/17 05:18:46;;;;;;;10.80;1.52;;;11.20;99.90;;;;;;5048160;28;20032;-68
2022/09/17 05:21:12;;;;;;;5.75;1.10;;;11.20;99.90;;;;;;5052841;28;20041;-68
2022/09/17 05:23:37;;;;;;;2.65;0.93;;;11.10;99.90;;;;;;5053178;28;20025;-68
2022/09/17 05:26:03;;;;;;;11.18;1.38;;;11.10;99.90;;;;;;5053032;28;20025;-68
2022/09/17 05:28:28;;;;;;;7.28;1.05;;;11.10;99.90;;;;;;5052719;28;20074;-68
2022/09/17 05:30:57;;;;;;;9.50;1.33;;;11.10;99.90;;;;;;5051509;28;20124;-68
2022/09/17 05:33:23;;;;;;;10.18;1.20;;;11.10;99.90;;;;;;5047651;28;20059;-69
2022/09/17 05:35:48;;;;;;;7.53;1.50;;;11.10;99.90;;;;;;5052417;28;20517;-68
2022/09/17 05:38:14;;;;;;;6.90;1.17;;;11.10;99.90;;;;;;5068724;28;20035;-68
2022/09/17 05:40:40;;;;;;;7.00;1.77;;;11.20;99.90;;;;;;5072499;28;20040;-68
2022/09/17 05:43:06;;;;;;;7.90;1.63;;;11.20;99.90;;;;;;5072506;28;20021;-68
2022/09/17 05:45:33;;;;;;;11.82;2.40;;;11.30;99.90;;;;;;5069356;28;20074;-68
2022/09/17 05:48:00;;;;;;;11.63;2.42;;;11.30;99.90;;;;;;5052113;28;20032;-68
2022/09/17 05:50:28;;;;;;;8.25;1.77;;;11.50;99.90;;;;;;5047456;28;20029;-68
2022/09/17 05:52:54;;;;;;;14.13;4.60;;;11.60;99.90;;;;;;5052268;28;20143;-68
2022/09/17 05:55:21;;;;;;;9.85;2.38;;;11.70;99.90;;;;;;5052386;28;20064;-69
2022/09/17 05:57:50;;;;;;;15.00;3.17;;;11.70;99.90;;;;;;5052306;28;20029;-69
2022/09/17 06:00:17;;;;;;;9.77;2.15;;;11.80;99.90;;;;;;5052144;28;20505;-69
2022/09/17 06:02:43;;;;;;;12.80;2.85;;;11.80;99.90;;;;;;5052247;28;20068;-68
2022/09/17 06:05:09;;;;;;;8.00;3.28;;;11.90;99.90;;;;;;5047354;28;20075;-69
2022/09/17 06:07:38;;;;;;;6.00;1.52;;;11.90;99.90;;;;;;5052608;28;20500;-68
2022/09/17 06:10:05;;;;;;;9.85;2.70;;;12.00;99.90;;;;;;5051810;28;20486;-68
2022/09/17 06:12:31;;;;;;;11.88;2.35;;;12.10;99.90;;;;;;5052162;28;20079;-68
2022/09/17 06:14:56;;;;;;;15.38;3.40;;;12.20;99.90;;;;;;5051938;28;20493;-68
2022/09/17 06:17:22;;;;;;;8.43;2.10;;;12.40;99.90;;;;;;5052285;28;20112;-68
2022/09/17 06:19:48;;;;;;;14.30;3.13;;;12.60;99.90;;;;;;5052037;28;20462;-69
2022/09/17 06:22:13;;;;;;;8.35;1.60;;;12.90;99.90;;;;;;5047197;28;20340;-68
2022/09/17 06:24:39;;;;;;;10.73;2.00;;;13.10;99.90;;;;;;5051955;28;20023;-68
2022/09/17 06:27:04;;;;;;;7.97;1.77;;;13.30;99.90;;;;;;5051869;28;20027;-67
2022/09/17 06:29:30;;;;;;;10.98;1.88;;;13.40;99.90;;;;;;5052362;28;20108;-67
2022/09/17 06:31:55;;;;;;;8.63;1.88;;;13.40;99.90;;;;;;5051441;28;20035;-68
2022/09/17 06:34:21;;;;;;;4.30;1.30;;;13.30;99.90;;;;;;5051877;28;20494;-69
2022/09/17 06:36:49;;;;;;;10.23;2.58;;;13.10;99.90;;;;;;5052191;28;20040;-68
2022/09/17 06:39:15;;;;;;;7.60;2.00;;;12.90;99.90;;;;;;5051986;28;20029;-69
2022/09/17 06:41:42;;;;;;;17.52;2.88;;;12.80;99.90;;;;;;5051695;28;20041;-68
2022/09/17 06:44:07;;;;;;;9.10;2.83;;;12.80;99.90;;;;;;5051979;28;20028;-68
2022/09/17 06:46:33;;;;;;;9.90;2.40;;;12.80;99.90;;;;;;5053205;28;20029;-68
2022/09/17 06:48:59;;;;;;;8.90;2.05;;;12.90;99.90;;;;;;5072036;28;20394;-68
2022/09/17 06:51:24;;;;;;;15.82;1.77;;;13.00;99.90;;;;;;5071773;28;20036;-68
2022/09/17 06:53:50;;;;;;;10.80;2.58;;;13.00;99.90;;;;;;5071495;28;20040;-68
2022/09/17 06:56:16;;;;;;;7.47;0.85;;;13.00;99.90;;;;;;5059775;28;20108;-68
2022/09/17 06:58:43;;;;;;;6.57;1.77;;;13.10;99.90;;;;;;5052660;28;20116;-68
2022/09/17 07:01:14;;;;;;;10.15;2.35;;;13.10;99.90;;;;;;5054095;28;20409;-68
2022/09/17 07:03:42;;;;;;;11.27;1.90;;;13.30;99.90;;;;;;5069913;28;20035;-69
2022/09/17 07:06:09;;;;;;;10.18;2.60;;;13.70;99.90;;;;;;5075617;28;20021;-70
2022/09/17 07:08:35;;;;;;;6.55;1.38;;;13.90;99.90;;;;;;5057452;28;20061;-69
2022/09/17 07:11:01;;;;;;;8.15;1.70;;;13.80;99.90;;;;;;5055126;28;20067;-68
2022/09/17 07:13:27;;;;;;;9.27;3.05;;;13.30;99.90;;;;;;5053934;28;20029;-69
2022/09/17 07:15:59;;;;;;;10.80;2.40;;;12.90;99.90;;;;;;5054671;28;20182;-69
2022/09/17 07:18:25;;;;;;;7.22;2.65;;;12.60;99.90;;;;;;5061174;28;20065;-69
2022/09/17 07:20:59;;;;;;;13.98;5.25;;;12.20;99.90;;;;;;5055243;28;20109;-68
2022/09/17 07:23:26;;;;;;;10.00;2.55;;;12.00;99.90;;;;;;5054332;28;20033;-69
2022/09/17 07:25:54;;;;;;;5.05;2.00;;;11.80;99.90;;;;;;5054799;28;20171;-68
2022/09/17 07:28:21;;;;;;;11.68;2.95;;;11.70;99.90;;;;;;5054285;28;20052;-68
2022/09/17 07:30:47;;;;;;;13.43;3.33;;;11.80;99.90;;;;;;5054620;28;20033;-69
2022/09/17 07:33:14;;;;;;;10.60;1.90;;;12.10;99.90;;;;;;5054327;28;20026;-69
2022/09/17 07:35:40;;;;;;;7.95;1.63;;;12.40;99.90;;;;;;5054340;28;20098;-69
2022/09/17 07:38:05;;;;;;;10.43;1.23;;;12.50;99.90;;;;;;5053445;28;20470;-69
2022/09/17 07:40:31;;;;;;;13.43;2.47;;;12.80;99.90;;;;;;5053939;28;20059;-69
2022/09/17 07:42:57;;;;;;;15.77;2.03;;;13.30;99.90;;;;;;5053930;28;20677;-69
2022/09/17 07:45:23;;;;;;;9.27;1.77;;;14.10;99.90;;;;;;5053803;28;20136;-70
2022/09/17 07:47:49;;;;;;;4.50;1.52;;;15.10;99.90;;;;;;5053936;28;20571;-69
2022/09/17 07:50:15;;;;;;;10.10;2.67;;;15.00;99.90;;;;;;5054933;28;20025;-70
2022/09/17 07:52:47;;;;;;;7.57;1.52;;;14.40;99.90;;;;;;5052445;28;20033;-70
2022/09/17 07:55:13;;;;;;;11.68;2.47;;;13.80;99.90;;;;;;5048894;28;20326;-70
2022/09/17 07:57:39;;;;;;;15.05;3.45;;;13.50;99.90;;;;;;5054027;28;20124;-69
2022/09/17 08:00:06;;;;;;;12.57;3.88;;;13.30;99.90;;;;;;5053767;28;20045;-69
2022/09/17 08:02:31;;;;;;;11.30;2.78;;;13.20;99.90;;;;;;5053684;28;20386;-70
2022/09/17 08:04:57;;;;;;;5.70;1.55;;;13.10;99.90;;;;;;5053225;28;20033;-70
2022/09/17 08:07:23;;;;;;;11.98;2.60;;;13.00;99.90;;;;;;5053439;28;20383;-70
2022/09/17 08:09:48;;;;;;;11.30;2.47;;;13.10;99.90;;;;;;5052829;28;20382;-70
2022/09/17 08:12:14;;;;;;;10.23;1.90;;;13.90;99.90;;;;;;5053938;28;20759;-70
2022/09/17 08:14:40;;;;;;;14.32;3.88;;;14.80;99.90;;;;;;5053468;28;20028;-70
2022/09/17 08:17:07;;;;;;;12.95;4.50;;;16.50;99.90;;;;;;5053691;28;20024;-70
2022/09/17 08:19:33;;;;;;;14.20;3.85;;;17.70;99.90;;;;;;5053541;28;20482;-70
2022/09/17 08:21:58;;;;;;;19.27;5.05;;;18.00;99.90;;;;;;5052746;28;20060;-70
2022/09/17 08:24:24;;;;;;;12.50;2.97;;;17.80;99.90;;;;;;5053608;28;20044;-69
2022/09/17 08:26:50;;;;;;;14.38;2.05;;;17.30;99.90;;;;;;5053758;28;20474;-70
2022/09/17 08:29:16;;;;;;;20.40;5.50;;;16.60;99.90;;;;;;5053409;28;20029;-69
2022/09/17 08:31:41;;;;;;;12.93;2.38;;;15.80;99.90;;;;;;5052964;28;20039;-69
2022/09/17 08:34:08;;;;;;;13.95;2.67;;;15.10;99.90;;;;;;5053141;28;20021;-70
2022/09/17 08:36:34;;;;;;;12.25;2.60;;;14.60;99.90;;;;;;5052902;28;20037;-70
2022/09/17 08:39:00;;;;;;;13.63;2.20;;;14.70;99.90;;;;;;5053655;28;20108;-70
2022/09/17 08:41:39;;;;;;;12.95;2.78;;;15.30;99.90;;;;;;5052992;28;20401;-70
2022/09/17 08:44:07;;;;;;;17.38;4.03;;;15.80;99.90;;;;;;5053864;28;20036;-70
2022/09/17 08:46:38;;;;;;;9.35;2.25;;;16.40;99.90;;;;;;5052930;28;20136;-70
2022/09/17 08:49:22;;;;;;;12.27;2.92;;;17.10;99.90;;;;;;5052945;28;20050;-70
2022/09/17 08:52:26;;;;;;;5.97;1.45;;;17.80;99.90;;;;;;5052114;28;20035;-70
2022/09/17 08:54:58;;;;;;;11.75;3.88;;;18.40;99.90;;;;;;5053802;28;20032;-70
2022/09/17 08:57:42;;;;;;;3.55;1.92;;;19.40;99.90;;;;;;5053507;28;20029;-70
2022/09/17 09:00:18;;;;;;;5.88;1.83;;;20.10;98.20;;;;;;5052485;28;20036;-69
2022/09/17 09:03:20;;;;;;;7.20;1.85;;;20.80;96.10;;;;;;5053266;28;20033;-69
2022/09/17 09:05:51;;;;;;;;;;;20.80;95.60;;;;;;5033666;28;20037;-70
2022/09/17 09:08:42;;;;;;;8.48;2.00;;;21.40;95.50;;;;;;5039263;28;20349;-69
2022/09/17 09:11:20;;;;;;;6.15;1.83;;;21.60;94.70;;;;;;5053268;28;20043;-69
2022/09/17 09:13:51;;;;;;;7.38;2.30;;;21.10;94.80;;;;;;5052354;28;20506;-69
2022/09/17 09:16:27;;;;;;;8.82;2.22;;;20.50;95.10;;;;;;5052805;28;20033;-69
2022/09/17 09:19:09;;;;;;;2.97;1.55;;;20.40;95.70;;;;;;5051031;28;20083;-69
2022/09/17 09:21:46;;;;;;;9.65;1.88;;;20.50;95.00;;;;;;5046258;28;20548;-68
2022/09/17 09:24:30;;;;;;;5.03;0.93;;;20.00;95.40;;;;;;5049561;28;20032;-69
2022/09/17 09:27:17;;;;;;;9.23;1.98;;;19.20;95.80;;;;;;5050952;28;20036;-70
2022/09/17 09:29:52;;;;;;;7.63;2.20;;;18.30;96.90;;;;;;5052790;28;20031;-70
2022/09/17 09:32:36;;;;;;;4.68;0.90;;;17.50;97.20;;;;;;5052534;28;20519;-70
2022/09/17 09:35:15;;;;;;;10.05;2.03;;;16.90;98.90;;;;;;5050285;28;20041;-69
2022/09/17 09:37:45;;;;;;;11.90;3.88;;;16.70;99.90;;;;;;5052409;28;20102;-69
2022/09/17 09:40:34;;;;;;;10.90;3.95;;;17.60;99.90;;;;;;5052195;28;20037;-69
2022/09/17 09:43:08;;;;;;;8.75;1.75;;;19.10;99.70;;;;;;5052001;28;20112;-69
2022/09/17 09:46:03;;;;;;;13.70;3.60;;;20.00;95.00;;;;;;5048433;28;20561;-69
2022/09/17 09:48:44;;;;;;;8.50;1.98;;;19.70;95.50;;;;;;5044603;28;20509;-69
2022/09/17 09:51:30;;;;;;;18.08;3.55;;;19.40;96.30;;;;;;5050244;28;20017;-69
2022/09/17 09:54:05;;;;;;;11.13;1.98;;;19.90;94.60;;;;;;5051968;28;20126;-69
2022/09/17 09:56:43;;;;;;;10.00;2.10;;;20.70;93.40;;;;;;5051853;28;20381;-68
2022/09/17 09:59:11;;;;;;;7.22;1.70;;;21.60;91.30;;;;;;5035247;28;20119;-69
2022/09/17 10:01:43;;;;;;;8.43;1.70;;;22.40;85.90;;;;;;5051722;28;20044;-69
2022/09/17 10:04:19;;;;;;;;;;;22.90;85.60;;;;;;5052354;28;20048;-69
2022/09/17 10:06:48;;;;;;;10.30;2.08;;;23.40;84.10;;;;;;5051716;28;19905;-67
2022/09/17 10:09:17;;;;;;;10.00;2.63;;;23.40;83.40;;;;;;5051568;28;20129;-67
2022/09/17 10:12:02;;;;;;;11.82;2.85;;;23.80;82.00;;;;;;5051451;28;20029;-68
2022/09/17 10:14:30;;;;;;;11.45;2.38;;;24.20;82.90;;;;;;5051746;28;20037;-68
2022/09/17 10:17:16;;;;;;;6.80;2.05;;;24.50;81.10;;;;;;5050843;28;20017;-68
2022/09/17 10:19:43;;;;;;;10.23;2.55;;;24.70;80.00;;;;;;5051397;28;20033;-68
2022/09/17 10:22:28;;;;;;;10.95;2.03;;;24.50;79.80;;;;;;5051667;28;20033;-68
2022/09/17 10:24:55;;;;;;;10.30;2.08;;;24.30;83.00;;;;;;5051390;28;20418;-68
2022/09/17 10:27:23;;;;;;;9.82;3.05;;;23.70;80.40;;;;;;5051478;28;20033;-68
2022/09/17 10:29:52;;;;;;;13.80;3.70;;;23.40;77.70;;;;;;5052069;28;20027;-68
2022/09/17 10:32:20;;;;;;;10.23;2.22;;;23.40;78.30;;;;;;5052664;28;20033;-69
2022/09/17 10:35:13;;;;;;;6.57;1.80;;;23.60;77.60;;;;;;5059442;28;20027;-68
2022/09/17 10:37:46;;;;;;;11.07;2.47;;;23.80;76.30;;;;;;5060964;28;20047;-68
2022/09/17 10:40:18;;;;;;;11.85;3.53;;;24.00;74.10;;;;;;5060189;28;20032;-69
2022/09/17 10:42:47;;;;;;;8.77;2.65;;;24.30;75.60;;;;;;5061959;28;20471;-69
2022/09/17 10:45:30;;;;;;;3.45;2.42;;;24.60;73.00;;;;;;5062988;28;20048;-68
2022/09/17 10:47:58;;;;;;;5.32;1.40;;;24.70;72.10;;;;;;5062661;28;20021;-68
2022/09/17 10:50:27;;;;;;;9.93;2.90;;;24.60;70.00;;;;;;5063265;28;20449;-68
2022/09/17 10:52:55;;;;;;;6.82;2.45;;;24.10;73.10;;;;;;5060266;28;20057;-68
2022/09/17 10:55:42;;;;;;;12.63;2.95;;;23.90;73.60;;;;;;5062295;28;20424;-68
2022/09/17 10:58:07;;;;;;;15.90;4.03;;;23.30;74.50;;;;;;5061541;28;20028;-69
2022/09/17 11:00:43;;;;;;;10.77;2.05;;;23.10;75.40;;;;;;5061056;28;20047;-69
2022/09/17 11:03:36;;;;;;;6.60;1.65;;;23.50;73.30;;;;;;5064598;28;20070;-68
2022/09/17 11:06:56;;;;;;;8.60;2.00;;;23.90;69.50;;;;;;5059472;28;20044;-68
2022/09/17 11:09:44;;;;;;;13.07;3.17;;;24.20;70.70;;;;;;4964348;28;20046;-68
2022/09/17 11:12:27;;;;;;;8.05;1.52;;;24.70;70.40;;;;;;5058566;28;20037;-68
2022/09/17 11:15:02;;;;;;;6.85;2.00;;;24.70;71.30;;;;;;5060707;28;20024;-68
2022/09/17 11:17:48;;;;;;;7.32;1.98;;;24.60;72.00;;;;;;5064026;28;20470;-68
2022/09/17 11:20:28;;;;;;;8.98;1.88;;;24.70;71.40;;;;;;5059431;28;20056;-68
2022/09/17 11:23:22;;;;;;;9.73;1.70;;;24.90;68.50;;;;;;5061152;28;20013;-68
2022/09/17 11:26:04;;;;;;;11.90;2.00;;;25.00;70.90;;;;;;5062015;28;20020;-68
2022/09/17 11:28:51;;;;;;;7.80;2.20;;;24.90;74.20;;;;;;5059176;28;20462;-68
2022/09/17 11:31:37;;;;;;;11.18;2.10;;;24.70;76.10;;;;;;5060746;28;20021;-67
2022/09/17 11:34:18;;;;;;;10.05;2.15;;;24.70;75.80;;;;;;5053003;28;20028;-67
2022/09/17 11:37:38;;;;;;;13.27;2.42;;;24.10;77.60;;;;;;5061698;28;20031;-68
2022/09/17 11:40:14;;;;;;;8.57;1.73;;;23.50;78.80;;;;;;4963890;28;20042;-67
2022/09/17 11:42:53;;;;;;;11.77;2.08;;;22.70;80.70;;;;;;5050921;28;20037;-68
2022/09/17 11:45:30;;;;;;;12.35;1.88;;;22.20;82.50;;;;;;5062057;28;20017;-69
2022/09/17 11:48:23;;;;;;;11.55;1.92;;;21.60;83.50;;;;;;5061934;28;20538;-67
2022/09/17 11:50:52;;;;;;;;;;;21.50;83.10;;;;;;5061669;28;20078;-67
2022/09/17 11:53:33;;;;;;;10.55;1.83;;;21.50;81.50;;;;;;5061625;28;19966;-68
2022/09/17 11:56:14;;;;;;;10.73;1.90;;;21.40;83.50;;;;;;5062366;28;20025;-68
2022/09/17 11:58:48;;;;;;;7.10;1.58;;;21.90;83.20;;;;;;5062255;28;20036;-68
2022/09/17 12:01:25;;;;;;;10.73;2.53;;;21.90;83.90;;;;;;5060369;28;20033;-68
2022/09/17 12:04:04;;;;;;;11.00;1.80;;;22.00;84.80;;;;;;5060468;28;20535;-68
2022/09/17 12:06:54;;;;;;;14.43;2.20;;;22.10;84.50;;;;;;5054728;28;20100;-68
2022/09/17 12:09:24;;;;;;;11.93;2.17;;;21.60;85.10;;;;;;5059962;28;20044;-68
2022/09/17 12:12:23;;;;;;;12.82;2.28;;;21.70;85.90;;;;;;5056186;28;20055;-68
2022/09/17 12:14:56;;;;;;;13.27;2.65;;;21.90;85.50;;;;;;5052034;28;20041;-68
2022/09/17 12:17:27;;;;;;;19.88;2.53;;;21.90;83.90;;;;;;5055728;28;20780;-68
2022/09/17 12:20:01;;;;;;;12.05;2.58;;;22.40;81.40;;;;;;5055114;28;20040;-68
2022/09/17 12:22:31;;;;;;;12.65;2.05;;;22.70;78.70;;;;;;5055326;28;20021;-68
2022/09/17 12:24:56;;;;;;;11.27;1.92;;;22.40;78.70;;;;;;5051973;28;20032;-68
2022/09/17 12:27:43;;;;;;;5.25;1.58;;;21.90;80.40;;;;;;5053687;28;20379;-68
2022/09/17 12:30:12;;;;;;;10.45;2.10;;;21.50;80.60;;;;;;5049305;28;20082;-68
2022/09/17 12:33:14;;;;;;;11.73;2.00;;;21.00;81.50;;;;;;5048691;28;20021;-68
2022/09/17 12:35:40;;;;;;;;;;;20.50;81.80;;;;;;5054218;28;20028;-68
2022/09/17 12:38:27;;;;;;;8.68;1.60;;;20.00;82.50;;;;;;5053476;28;19905;-67
2022/09/17 12:41:13;;;;;;;11.73;1.52;;;19.80;82.90;;;;;;5048479;28;20055;-67
2022/09/17 12:44:03;;;;;;;11.63;2.10;;;19.60;82.90;;;;;;5052999;28;20021;-68
2022/09/17 12:46:40;;;;;;;13.98;2.17;;;19.40;82.80;;;;;;5051788;28;20040;-68
2022/09/17 12:49:28;;;;;;;11.25;1.75;;;19.30;82.60;;;;;;5052145;28;20351;-68
2022/09/17 12:52:00;;;;;;;11.05;1.88;;;19.00;82.90;;;;;;5053278;28;20633;-68
2022/09/17 12:54:53;;;;;;;11.48;1.75;;;19.00;83.80;;;;;;5053099;28;20120;-68
2022/09/17 12:57:35;;;;;;;6.15;0.93;;;19.20;82.50;;;;;;5051099;28;20025;-68
2022/09/17 13:00:09;;;;;;;7.80;1.20;;;19.40;80.90;;;;;;5052982;28;20481;-68
2022/09/17 13:02:40;;;;;;;9.98;1.33;;;19.60;80.40;;;;;;5052866;28;20454;-68
2022/09/17 13:05:17;;;;;;;4.78;1.13;;;19.70;81.20;;;;;;5053006;28;20076;-68
2022/09/17 13:08:06;;;;;;;12.65;1.80;;;19.80;80.60;;;;;;5053080;28;20025;-68
2022/09/17 13:10:49;;;;;;;10.30;1.67;;;19.80;82.00;;;;;;5025462;28;20061;-68
2022/09/17 13:13:47;;;;;;;6.60;1.77;;;19.80;80.90;;;;;;5041466;28;20112;-68